sensor_id;sensor_type;location;lat;lon;timestamp;pressure;altitude;pressure_sealevel;temperature;humidity
57024;BME280;42916;54.346;18.562;2023-01-31T00:01:30;98927.25;;;2.32;100.00
57024;BME280;42916;54.346;18.562;2023-01-31T00:04:02;98925.55;;;2.30;100.00
57024;BME280;42916;54.346;18.562;2023-01-31T00:06:31;98925.04;;;2.29;100.00
57024;BME280;42916;54.346;18.562;2023-01-31T00:09:00;98925.48;;;2.28;100.00
57024;BME280;42916;54.346;18.562;2023-01-31T00:11:28;98931.10;;;2.28;100.00
57024;BME280;42916;54.346;18.562;2023-01-31T00:13:57;98926.27;;;2.26;100.00
57024;BME280;42916;54.346;18.562;2023-01-31T00:16:24;98932.69;;;2.24;100.00
57024;BME280;42916;54.346;18.562;2023-01-31T00:18:51;98936.83;;;2.22;100.00
57024;BME280;42916;54.346;18.562;2023-01-31T00:21:21;98933.58;;;2.23;100.00
57024;BME280;42916;54.346;18.562;2023-01-31T00:23:49;98942.04;;;2.22;100.00
57024;BME280;42916;54.346;18.562;2023-01-31T00:28:48;98952.60;;;2.24;100.00
57024;BME280;42916;54.346;18.562;2023-01-31T00:31:20;98949.38;;;2.24;100.00
57024;BME280;42916;54.346;18.562;2023-01-31T00:33:50;98957.02;;;2.22;100.00
57024;BME280;42916;54.346;18.562;2023-01-31T00:36:23;98964.88;;;2.21;100.00
57024;BME280;42916;54.346;18.562;2023-01-31T00:38:52;98961.33;;;2.21;100.00
57024;BME280;42916;54.346;18.562;2023-01-31T00:41:21;98961.77;;;2.22;100.00
57024;BME280;42916;54.346;18.562;2023-01-31T00:43:49;98962.85;;;2.22;100.00
57024;BME280;42916;54.346;18.562;2023-01-31T00:46:16;98966.67;;;2.20;100.00
57024;BME280;42916;54.346;18.562;2023-01-31T00:48:43;98968.96;;;2.19;100.00
57024;BME280;42916;54.346;18.562;2023-01-31T00:51:10;98974.13;;;2.17;100.00
57024;BME280;42916;54.346;18.562;2023-01-31T00:53:37;98981.91;;;2.15;100.00
57024;BME280;42916;54.346;18.562;2023-01-31T00:56:08;98986.46;;;2.15;100.00
57024;BME280;42916;54.346;18.562;2023-01-31T00:58:36;98990.01;;;2.15;100.00
57024;BME280;42916;54.346;18.562;2023-01-31T01:01:05;98985.03;;;2.15;100.00
57024;BME280;42916;54.346;18.562;2023-01-31T01:03:33;98989.45;;;2.19;100.00
57024;BME280;42916;54.346;18.562;2023-01-31T01:06:02;98991.75;;;2.21;100.00
57024;BME280;42916;54.346;18.562;2023-01-31T01:08:29;98997.86;;;2.22;100.00
57024;BME280;42916;54.346;18.562;2023-01-31T01:11:06;99002.14;;;2.22;100.00
57024;BME280;42916;54.346;18.562;2023-01-31T01:13:34;99006.03;;;2.21;100.00
57024;BME280;42916;54.346;18.562;2023-01-31T01:16:06;99002.29;;;2.20;100.00
57024;BME280;42916;54.346;18.562;2023-01-31T01:18:34;99008.20;;;2.20;100.00
57024;BME280;42916;54.346;18.562;2023-01-31T01:21:13;99001.42;;;2.19;100.00
57024;BME280;42916;54.346;18.562;2023-01-31T01:23:42;99002.84;;;2.16;100.00
57024;BME280;42916;54.346;18.562;2023-01-31T01:26:14;99013.39;;;2.12;100.00
57024;BME280;42916;54.346;18.562;2023-01-31T01:28:42;99011.90;;;2.08;100.00
57024;BME280;42916;54.346;18.562;2023-01-31T01:31:11;99018.98;;;2.03;100.00
57024;BME280;42916;54.346;18.562;2023-01-31T01:33:41;99030.61;;;2.02;100.00
57024;BME280;42916;54.346;18.562;2023-01-31T01:36:10;99043.29;;;2.03;100.00
57024;BME280;42916;54.346;18.562;2023-01-31T01:38:39;99042.86;;;2.05;100.00
57024;BME280;42916;54.346;18.562;2023-01-31T01:41:07;99054.23;;;2.05;100.00
57024;BME280;42916;54.346;18.562;2023-01-31T01:48:49;99060.08;;;2.03;100.00
57024;BME280;42916;54.346;18.562;2023-01-31T01:51:18;99061.64;;;2.05;100.00
57024;BME280;42916;54.346;18.562;2023-01-31T01:53:49;99060.30;;;2.03;100.00
57024;BME280;42916;54.346;18.562;2023-01-31T01:56:23;99066.29;;;2.03;100.00
57024;BME280;42916;54.346;18.562;2023-01-31T01:59:00;99063.74;;;2.02;100.00
57024;BME280;42916;54.346;18.562;2023-01-31T02:01:32;99068.59;;;2.00;100.00
57024;BME280;42916;54.346;18.562;2023-01-31T02:04:01;99068.46;;;2.01;100.00
57024;BME280;42916;54.346;18.562;2023-01-31T02:06:30;99075.09;;;2.00;100.00
57024;BME280;42916;54.346;18.562;2023-01-31T02:08:58;99063.98;;;2.00;100.00
57024;BME280;42916;54.346;18.562;2023-01-31T02:11:27;99070.91;;;1.98;100.00
57024;BME280;42916;54.346;18.562;2023-01-31T02:14:08;99071.27;;;1.96;100.00
57024;BME280;42916;54.346;18.562;2023-01-31T02:16:36;99080.42;;;1.94;100.00
57024;BME280;42916;54.346;18.562;2023-01-31T02:19:14;99082.95;;;1.93;100.00
57024;BME280;42916;54.346;18.562;2023-01-31T02:22:09;99094.82;;;1.91;100.00
57024;BME280;42916;54.346;18.562;2023-01-31T02:34:36;99118.15;;;1.87;99.98
57024;BME280;42916;54.346;18.562;2023-01-31T02:37:28;99125.13;;;1.87;100.00
57024;BME280;42916;54.346;18.562;2023-01-31T02:43:03;99141.04;;;1.86;100.00
57024;BME280;42916;54.346;18.562;2023-01-31T02:45:55;99139.05;;;1.86;99.86
57024;BME280;42916;54.346;18.562;2023-01-31T02:49:00;99143.81;;;1.87;99.87
57024;BME280;42916;54.346;18.562;2023-01-31T02:51:22;99145.91;;;1.88;99.83
57024;BME280;42916;54.346;18.562;2023-01-31T02:54:04;99147.58;;;1.87;99.59
57024;BME280;42916;54.346;18.562;2023-01-31T02:56:35;99151.10;;;1.85;99.70
57024;BME280;42916;54.346;18.562;2023-01-31T02:59:34;99147.09;;;1.83;99.61
57024;BME280;42916;54.346;18.562;2023-01-31T03:02:02;99156.28;;;1.80;99.43
57024;BME280;42916;54.346;18.562;2023-01-31T03:04:31;99164.79;;;1.80;99.38
57024;BME280;42916;54.346;18.562;2023-01-31T03:09:36;99183.30;;;1.82;98.48
57024;BME280;42916;54.346;18.562;2023-01-31T03:15:03;99194.85;;;1.81;98.42
57024;BME280;42916;54.346;18.562;2023-01-31T03:18:04;99197.02;;;1.80;97.95
57024;BME280;42916;54.346;18.562;2023-01-31T03:23:20;99208.48;;;1.80;98.11
57024;BME280;42916;54.346;18.562;2023-01-31T03:25:48;99210.11;;;1.78;98.19
57024;BME280;42916;54.346;18.562;2023-01-31T03:28:20;99210.91;;;1.74;98.13
57024;BME280;42916;54.346;18.562;2023-01-31T03:33:51;99211.23;;;1.72;97.65
57024;BME280;42916;54.346;18.562;2023-01-31T03:37:23;99216.84;;;1.71;97.36
57024;BME280;42916;54.346;18.562;2023-01-31T03:39:35;99213.77;;;1.73;97.33
57024;BME280;42916;54.346;18.562;2023-01-31T03:42:07;99219.73;;;1.71;97.43
57024;BME280;42916;54.346;18.562;2023-01-31T03:45:03;99227.11;;;1.68;97.11
57024;BME280;42916;54.346;18.562;2023-01-31T03:47:38;99226.08;;;1.68;97.16
57024;BME280;42916;54.346;18.562;2023-01-31T03:50:22;99231.14;;;1.65;96.95
57024;BME280;42916;54.346;18.562;2023-01-31T03:53:07;99231.58;;;1.63;96.83
57024;BME280;42916;54.346;18.562;2023-01-31T03:55:51;99234.11;;;1.63;96.95
57024;BME280;42916;54.346;18.562;2023-01-31T03:58:25;99233.09;;;1.62;96.74
57024;BME280;42916;54.346;18.562;2023-01-31T04:00:58;99233.86;;;1.60;96.95
57024;BME280;42916;54.346;18.562;2023-01-31T04:03:36;99242.88;;;1.57;96.38
57024;BME280;42916;54.346;18.562;2023-01-31T04:06:05;99237.48;;;1.55;96.47
57024;BME280;42916;54.346;18.562;2023-01-31T04:08:33;99239.41;;;1.54;96.06
57024;BME280;42916;54.346;18.562;2023-01-31T04:11:03;99236.29;;;1.53;96.17
57024;BME280;42916;54.346;18.562;2023-01-31T04:13:30;99238.83;;;1.50;96.04
57024;BME280;42916;54.346;18.562;2023-01-31T04:15:57;99243.71;;;1.49;96.21
57024;BME280;42916;54.346;18.562;2023-01-31T04:18:23;99250.65;;;1.47;95.95
57024;BME280;42916;54.346;18.562;2023-01-31T04:20:50;99251.58;;;1.50;95.42
57024;BME280;42916;54.346;18.562;2023-01-31T04:23:17;99256.75;;;1.53;95.35
57024;BME280;42916;54.346;18.562;2023-01-31T04:25:44;99254.91;;;1.53;95.03
57024;BME280;42916;54.346;18.562;2023-01-31T04:28:12;99254.92;;;1.53;94.93
57024;BME280;42916;54.346;18.562;2023-01-31T04:30:38;99258.71;;;1.53;94.59
57024;BME280;42916;54.346;18.562;2023-01-31T04:33:05;99259.24;;;1.52;94.64
57024;BME280;42916;54.346;18.562;2023-01-31T04:35:32;99269.91;;;1.52;94.61
57024;BME280;42916;54.346;18.562;2023-01-31T04:38:00;99269.62;;;1.51;94.49
57024;BME280;42916;54.346;18.562;2023-01-31T04:40:27;99274.28;;;1.51;94.50
57024;BME280;42916;54.346;18.562;2023-01-31T04:42:54;99274.58;;;1.50;94.68
57024;BME280;42916;54.346;18.562;2023-01-31T04:45:20;99270.64;;;1.48;94.48
57024;BME280;42916;54.346;18.562;2023-01-31T04:47:47;99277.01;;;1.47;94.31
57024;BME280;42916;54.346;18.562;2023-01-31T04:50:14;99276.40;;;1.46;94.26
57024;BME280;42916;54.346;18.562;2023-01-31T04:52:41;99275.02;;;1.45;94.12
57024;BME280;42916;54.346;18.562;2023-01-31T04:55:08;99278.45;;;1.43;94.26
57024;BME280;42916;54.346;18.562;2023-01-31T04:57:35;99286.61;;;1.42;94.34
57024;BME280;42916;54.346;18.562;2023-01-31T05:00:03;99293.70;;;1.43;94.27
57024;BME280;42916;54.346;18.562;2023-01-31T05:02:30;99290.54;;;1.42;93.71
57024;BME280;42916;54.346;18.562;2023-01-31T05:04:57;99296.80;;;1.44;93.64
57024;BME280;42916;54.346;18.562;2023-01-31T05:07:24;99294.45;;;1.46;93.37
57024;BME280;42916;54.346;18.562;2023-01-31T05:09:51;99292.11;;;1.45;93.52
57024;BME280;42916;54.346;18.562;2023-01-31T05:12:17;99296.98;;;1.45;93.51
57024;BME280;42916;54.346;18.562;2023-01-31T05:14:44;99304.48;;;1.42;93.68
57024;BME280;42916;54.346;18.562;2023-01-31T05:17:11;99299.41;;;1.42;93.79
57024;BME280;42916;54.346;18.562;2023-01-31T05:19:37;99302.63;;;1.42;93.73
57024;BME280;42916;54.346;18.562;2023-01-31T05:22:04;99306.94;;;1.44;93.98
57024;BME280;42916;54.346;18.562;2023-01-31T05:24:32;99308.20;;;1.45;94.17
57024;BME280;42916;54.346;18.562;2023-01-31T05:27:00;99316.72;;;1.46;94.44
57024;BME280;42916;54.346;18.562;2023-01-31T05:29:29;99323.14;;;1.48;94.40
57024;BME280;42916;54.346;18.562;2023-01-31T05:31:58;99326.98;;;1.50;94.52
57024;BME280;42916;54.346;18.562;2023-01-31T05:34:26;99332.14;;;1.50;94.50
57024;BME280;42916;54.346;18.562;2023-01-31T05:36:54;99336.63;;;1.51;94.55
57024;BME280;42916;54.346;18.562;2023-01-31T05:39:21;99345.00;;;1.51;94.91
57024;BME280;42916;54.346;18.562;2023-01-31T05:41:48;99354.57;;;1.51;95.12
57024;BME280;42916;54.346;18.562;2023-01-31T05:44:15;99354.12;;;1.52;95.47
57024;BME280;42916;54.346;18.562;2023-01-31T05:46:42;99359.05;;;1.53;95.78
57024;BME280;42916;54.346;18.562;2023-01-31T05:49:08;99363.16;;;1.55;96.28
57024;BME280;42916;54.346;18.562;2023-01-31T05:51:36;99364.61;;;1.55;96.61
57024;BME280;42916;54.346;18.562;2023-01-31T05:54:03;99363.70;;;1.53;96.82
57024;BME280;42916;54.346;18.562;2023-01-31T05:56:29;99371.41;;;1.53;97.23
57024;BME280;42916;54.346;18.562;2023-01-31T05:58:56;99375.30;;;1.52;97.34
57024;BME280;42916;54.346;18.562;2023-01-31T06:01:26;99379.05;;;1.52;97.82
57024;BME280;42916;54.346;18.562;2023-01-31T06:03:53;99384.15;;;1.54;97.76
57024;BME280;42916;54.346;18.562;2023-01-31T06:06:19;99393.64;;;1.54;97.75
57024;BME280;42916;54.346;18.562;2023-01-31T06:08:46;99403.13;;;1.54;97.94
57024;BME280;42916;54.346;18.562;2023-01-31T06:11:14;99412.27;;;1.54;98.31
57024;BME280;42916;54.346;18.562;2023-01-31T06:13:41;99416.65;;;1.54;98.41
57024;BME280;42916;54.346;18.562;2023-01-31T06:16:12;99415.59;;;1.56;98.53
57024;BME280;42916;54.346;18.562;2023-01-31T06:18:38;99421.12;;;1.57;98.37
57024;BME280;42916;54.346;18.562;2023-01-31T06:21:06;99420.98;;;1.54;98.63
57024;BME280;42916;54.346;18.562;2023-01-31T06:23:33;99436.75;;;1.52;98.68
57024;BME280;42916;54.346;18.562;2023-01-31T06:26:00;99434.40;;;1.52;98.88
57024;BME280;42916;54.346;18.562;2023-01-31T06:28:27;99440.62;;;1.53;99.08
57024;BME280;42916;54.346;18.562;2023-01-31T06:30:54;99440.56;;;1.53;99.00
57024;BME280;42916;54.346;18.562;2023-01-31T06:33:20;99446.89;;;1.53;98.92
57024;BME280;42916;54.346;18.562;2023-01-31T06:35:47;99455.75;;;1.52;98.99
57024;BME280;42916;54.346;18.562;2023-01-31T06:38:14;99459.83;;;1.52;99.32
57024;BME280;42916;54.346;18.562;2023-01-31T06:40:41;99463.44;;;1.50;99.38
57024;BME280;42916;54.346;18.562;2023-01-31T06:43:08;99467.08;;;1.50;99.29
57024;BME280;42916;54.346;18.562;2023-01-31T06:45:35;99463.94;;;1.49;99.48
57024;BME280;42916;54.346;18.562;2023-01-31T06:48:03;99477.66;;;1.51;99.87
57024;BME280;42916;54.346;18.562;2023-01-31T06:50:30;99473.73;;;1.52;99.78
57024;BME280;42916;54.346;18.562;2023-01-31T06:52:56;99478.93;;;1.52;99.87
57024;BME280;42916;54.346;18.562;2023-01-31T06:55:24;99484.33;;;1.53;99.64
57024;BME280;42916;54.346;18.562;2023-01-31T06:57:51;99479.14;;;1.56;99.82
57024;BME280;42916;54.346;18.562;2023-01-31T07:00:18;99472.65;;;1.57;99.77
57024;BME280;42916;54.346;18.562;2023-01-31T07:02:45;99480.85;;;1.59;99.50
57024;BME280;42916;54.346;18.562;2023-01-31T07:05:13;99482.02;;;1.58;99.40
57024;BME280;42916;54.346;18.562;2023-01-31T07:07:40;99485.10;;;1.59;99.52
57024;BME280;42916;54.346;18.562;2023-01-31T07:10:07;99486.90;;;1.61;99.20
57024;BME280;42916;54.346;18.562;2023-01-31T07:12:34;99496.69;;;1.64;99.17
57024;BME280;42916;54.346;18.562;2023-01-31T07:15:01;99498.72;;;1.67;99.02
57024;BME280;42916;54.346;18.562;2023-01-31T07:17:28;99490.84;;;1.69;98.91
57024;BME280;42916;54.346;18.562;2023-01-31T07:19:54;99503.98;;;1.71;98.30
57024;BME280;42916;54.346;18.562;2023-01-31T07:22:21;99501.30;;;1.75;97.32
57024;BME280;42916;54.346;18.562;2023-01-31T07:24:48;99507.61;;;1.79;97.50
57024;BME280;42916;54.346;18.562;2023-01-31T07:27:16;99509.05;;;1.85;96.84
57024;BME280;42916;54.346;18.562;2023-01-31T07:29:43;99510.30;;;1.89;96.81
57024;BME280;42916;54.346;18.562;2023-01-31T07:32:10;99505.02;;;1.92;96.65
57024;BME280;42916;54.346;18.562;2023-01-31T07:34:37;99506.98;;;1.95;96.56
57024;BME280;42916;54.346;18.562;2023-01-31T07:37:04;99509.10;;;1.99;96.20
57024;BME280;42916;54.346;18.562;2023-01-31T07:39:30;99506.08;;;2.04;95.50
57024;BME280;42916;54.346;18.562;2023-01-31T07:41:57;99509.33;;;2.08;95.08
57024;BME280;42916;54.346;18.562;2023-01-31T07:44:24;99510.66;;;2.12;94.99
57024;BME280;42916;54.346;18.562;2023-01-31T07:46:51;99518.84;;;2.14;94.57
57024;BME280;42916;54.346;18.562;2023-01-31T07:49:20;99510.10;;;2.18;94.52
57024;BME280;42916;54.346;18.562;2023-01-31T07:51:47;99510.64;;;2.21;93.94
57024;BME280;42916;54.346;18.562;2023-01-31T07:54:14;99516.84;;;2.26;93.17
57024;BME280;42916;54.346;18.562;2023-01-31T07:56:40;99522.69;;;2.31;92.45
57024;BME280;42916;54.346;18.562;2023-01-31T07:59:07;99523.63;;;2.36;92.18
57024;BME280;42916;54.346;18.562;2023-01-31T08:01:34;99528.77;;;2.41;92.12
57024;BME280;42916;54.346;18.562;2023-01-31T08:04:19;99540.52;;;2.48;92.03
57024;BME280;42916;54.346;18.562;2023-01-31T08:06:46;99531.89;;;2.54;91.78
57024;BME280;42916;54.346;18.562;2023-01-31T08:09:14;99542.65;;;2.64;91.24
57024;BME280;42916;54.346;18.562;2023-01-31T08:11:41;99540.94;;;2.72;90.48
57024;BME280;42916;54.346;18.562;2023-01-31T08:14:08;99549.20;;;2.75;89.73
57024;BME280;42916;54.346;18.562;2023-01-31T08:16:36;99555.21;;;2.77;89.48
57024;BME280;42916;54.346;18.562;2023-01-31T08:19:03;99549.55;;;2.78;89.44
57024;BME280;42916;54.346;18.562;2023-01-31T08:21:30;99557.88;;;2.78;88.82
57024;BME280;42916;54.346;18.562;2023-01-31T08:23:57;99552.53;;;2.77;89.04
57024;BME280;42916;54.346;18.562;2023-01-31T08:26:23;99547.99;;;2.76;89.24
57024;BME280;42916;54.346;18.562;2023-01-31T08:28:51;99552.30;;;2.73;88.44
57024;BME280;42916;54.346;18.562;2023-01-31T08:31:24;99556.42;;;2.69;88.63
57024;BME280;42916;54.346;18.562;2023-01-31T08:33:51;99552.66;;;2.67;88.51
57024;BME280;42916;54.346;18.562;2023-01-31T08:36:23;99561.88;;;2.65;88.57
57024;BME280;42916;54.346;18.562;2023-01-31T08:38:51;99566.52;;;2.65;87.93
57024;BME280;42916;54.346;18.562;2023-01-31T08:41:20;99556.63;;;2.70;88.41
57024;BME280;42916;54.346;18.562;2023-01-31T08:43:47;99568.79;;;2.76;88.00
57024;BME280;42916;54.346;18.562;2023-01-31T08:46:14;99557.91;;;2.83;87.70
57024;BME280;42916;54.346;18.562;2023-01-31T08:48:41;99565.84;;;2.90;87.22
57024;BME280;42916;54.346;18.562;2023-01-31T08:51:10;99571.20;;;2.97;87.14
57024;BME280;42916;54.346;18.562;2023-01-31T08:53:39;99574.85;;;3.00;86.45
57024;BME280;42916;54.346;18.562;2023-01-31T08:56:07;99584.55;;;3.05;85.94
57024;BME280;42916;54.346;18.562;2023-01-31T08:58:36;99586.76;;;3.08;85.93
57024;BME280;42916;54.346;18.562;2023-01-31T09:01:06;99573.41;;;3.07;85.60
57024;BME280;42916;54.346;18.562;2023-01-31T09:03:34;99573.77;;;3.05;85.77
57024;BME280;42916;54.346;18.562;2023-01-31T09:06:02;99578.05;;;3.00;85.36
57024;BME280;42916;54.346;18.562;2023-01-31T09:08:29;99575.88;;;2.99;85.38
57024;BME280;42916;54.346;18.562;2023-01-31T09:10:57;99584.91;;;2.97;85.26
57024;BME280;42916;54.346;18.562;2023-01-31T09:13:26;99597.70;;;2.95;85.35
57024;BME280;42916;54.346;18.562;2023-01-31T09:16:07;99589.10;;;2.94;85.57
57024;BME280;42916;54.346;18.562;2023-01-31T09:18:35;99588.55;;;2.91;85.59
57024;BME280;42916;54.346;18.562;2023-01-31T09:21:07;99598.31;;;2.89;85.07
57024;BME280;42916;54.346;18.562;2023-01-31T09:23:34;99604.51;;;2.89;84.85
57024;BME280;42916;54.346;18.562;2023-01-31T09:26:02;99595.27;;;2.87;85.20
57024;BME280;42916;54.346;18.562;2023-01-31T09:28:29;99610.23;;;2.89;84.96
57024;BME280;42916;54.346;18.562;2023-01-31T09:31:08;99618.11;;;2.91;85.56
57024;BME280;42916;54.346;18.562;2023-01-31T09:33:35;99613.96;;;2.93;85.21
57024;BME280;42916;54.346;18.562;2023-01-31T09:36:06;99617.27;;;2.92;84.62
57024;BME280;42916;54.346;18.562;2023-01-31T09:38:34;99605.61;;;2.94;84.25
57024;BME280;42916;54.346;18.562;2023-01-31T09:43:55;99616.56;;;3.05;83.52
57024;BME280;42916;54.346;18.562;2023-01-31T09:46:26;99612.45;;;3.12;83.37
57024;BME280;42916;54.346;18.562;2023-01-31T09:48:58;99606.39;;;3.22;83.67
57024;BME280;42916;54.346;18.562;2023-01-31T09:51:27;99611.14;;;3.28;82.52
57024;BME280;42916;54.346;18.562;2023-01-31T09:53:54;99612.55;;;3.34;82.73
57024;BME280;42916;54.346;18.562;2023-01-31T09:58:58;99615.15;;;3.37;81.75
57024;BME280;42916;54.346;18.562;2023-01-31T10:07:00;99607.27;;;3.24;78.59
57024;BME280;42916;54.346;18.562;2023-01-31T10:12:18;99606.27;;;3.17;79.69
57024;BME280;42916;54.346;18.562;2023-01-31T10:14:55;99605.38;;;3.16;79.99
57024;BME280;42916;54.346;18.562;2023-01-31T10:17:35;99595.94;;;3.13;79.52
57024;BME280;42916;54.346;18.562;2023-01-31T10:23:29;99597.83;;;3.06;78.15
57024;BME280;42916;54.346;18.562;2023-01-31T10:26:21;99599.86;;;3.00;78.61
57024;BME280;42916;54.346;18.562;2023-01-31T10:28:54;99600.58;;;2.99;78.82
57024;BME280;42916;54.346;18.562;2023-01-31T10:31:33;99608.14;;;2.98;78.68
57024;BME280;42916;54.346;18.562;2023-01-31T10:34:24;99611.25;;;2.98;78.07
57024;BME280;42916;54.346;18.562;2023-01-31T10:39:49;99608.75;;;3.05;78.30
57024;BME280;42916;54.346;18.562;2023-01-31T10:42:31;99609.02;;;3.08;78.22
57024;BME280;42916;54.346;18.562;2023-01-31T10:56:32;99588.82;;;3.24;75.95
57024;BME280;42916;54.346;18.562;2023-01-31T10:59:05;99592.77;;;3.25;74.93
57024;BME280;42916;54.346;18.562;2023-01-31T11:01:34;99586.05;;;3.27;74.73
57024;BME280;42916;54.346;18.562;2023-01-31T11:04:25;99585.64;;;3.30;74.25
57024;BME280;42916;54.346;18.562;2023-01-31T11:06:53;99586.27;;;3.33;73.59
57024;BME280;42916;54.346;18.562;2023-01-31T11:09:22;99590.13;;;3.34;73.01
57024;BME280;42916;54.346;18.562;2023-01-31T11:11:59;99570.20;;;3.37;72.63
57024;BME280;42916;54.346;18.562;2023-01-31T11:14:26;99567.44;;;3.38;72.90
57024;BME280;42916;54.346;18.562;2023-01-31T11:17:02;99568.57;;;3.41;73.64
57024;BME280;42916;54.346;18.562;2023-01-31T11:20:01;99561.20;;;3.43;73.93
57024;BME280;42916;54.346;18.562;2023-01-31T11:22:30;99560.08;;;3.45;74.72
57024;BME280;42916;54.346;18.562;2023-01-31T11:25:00;99559.61;;;3.50;74.82
57024;BME280;42916;54.346;18.562;2023-01-31T11:27:38;99560.54;;;3.53;74.85
57024;BME280;42916;54.346;18.562;2023-01-31T11:30:16;99559.42;;;3.55;74.32
57024;BME280;42916;54.346;18.562;2023-01-31T11:32:45;99558.80;;;3.58;74.72
57024;BME280;42916;54.346;18.562;2023-01-31T11:37:52;99560.88;;;3.61;74.15
57024;BME280;42916;54.346;18.562;2023-01-31T11:40:26;99548.88;;;3.61;73.91
57024;BME280;42916;54.346;18.562;2023-01-31T11:42:58;99548.23;;;3.63;74.51
57024;BME280;42916;54.346;18.562;2023-01-31T11:45:29;99554.89;;;3.65;73.58
57024;BME280;42916;54.346;18.562;2023-01-31T11:48:04;99550.40;;;3.67;72.99
57024;BME280;42916;54.346;18.562;2023-01-31T11:50:37;99554.95;;;3.67;71.79
57024;BME280;42916;54.346;18.562;2023-01-31T11:53:20;99551.08;;;3.66;70.84
57024;BME280;42916;54.346;18.562;2023-01-31T11:55:49;99550.45;;;3.66;71.99
57024;BME280;42916;54.346;18.562;2023-01-31T11:58:46;99542.30;;;3.69;72.52
57024;BME280;42916;54.346;18.562;2023-01-31T12:01:18;99544.48;;;3.73;71.52
57024;BME280;42916;54.346;18.562;2023-01-31T12:03:54;99534.95;;;3.72;71.36
57024;BME280;42916;54.346;18.562;2023-01-31T12:06:40;99532.68;;;3.72;71.31
57024;BME280;42916;54.346;18.562;2023-01-31T12:11:52;99526.73;;;3.75;70.01
57024;BME280;42916;54.346;18.562;2023-01-31T12:14:19;99516.48;;;3.74;70.35
57024;BME280;42916;54.346;18.562;2023-01-31T12:16:47;99512.41;;;3.75;70.52
57024;BME280;42916;54.346;18.562;2023-01-31T12:19:42;99514.75;;;3.76;70.63
57024;BME280;42916;54.346;18.562;2023-01-31T12:25:11;99502.62;;;3.68;70.14
57024;BME280;42916;54.346;18.562;2023-01-31T12:51:45;99476.74;;;3.57;72.64
57024;BME280;42916;54.346;18.562;2023-01-31T12:56:54;99470.48;;;3.65;72.66
57024;BME280;42916;54.346;18.562;2023-01-31T12:59:44;99464.50;;;3.69;73.24
57024;BME280;42916;54.346;18.562;2023-01-31T13:07:52;99456.14;;;3.66;73.75
57024;BME280;42916;54.346;18.562;2023-01-31T13:11:18;99445.90;;;3.51;75.19
57024;BME280;42916;54.346;18.562;2023-01-31T13:13:27;99431.45;;;3.39;76.46
57024;BME280;42916;54.346;18.562;2023-01-31T13:16:30;99429.39;;;3.33;76.76
57024;BME280;42916;54.346;18.562;2023-01-31T13:19:01;99422.27;;;3.29;76.98
57024;BME280;42916;54.346;18.562;2023-01-31T13:21:33;99419.66;;;3.31;76.82
57024;BME280;42916;54.346;18.562;2023-01-31T13:24:08;99416.08;;;3.34;76.85
57024;BME280;42916;54.346;18.562;2023-01-31T13:26:42;99413.73;;;3.37;76.73
57024;BME280;42916;54.346;18.562;2023-01-31T13:29:26;99407.00;;;3.42;76.70
57024;BME280;42916;54.346;18.562;2023-01-31T13:34:43;99400.59;;;3.54;76.41
57024;BME280;42916;54.346;18.562;2023-01-31T13:37:14;99406.41;;;3.60;76.27
57024;BME280;42916;54.346;18.562;2023-01-31T13:39:56;99414.96;;;3.62;76.23
57024;BME280;42916;54.346;18.562;2023-01-31T13:42:24;99415.90;;;3.66;76.73
57024;BME280;42916;54.346;18.562;2023-01-31T13:44:53;99403.93;;;3.74;77.12
57024;BME280;42916;54.346;18.562;2023-01-31T13:47:31;99411.41;;;3.98;77.73
57024;BME280;42916;54.346;18.562;2023-01-31T13:50:34;99409.48;;;3.99;77.44
57024;BME280;42916;54.346;18.562;2023-01-31T13:53:06;99412.30;;;3.92;77.94
57024;BME280;42916;54.346;18.562;2023-01-31T13:55:41;99406.87;;;3.95;78.35
57024;BME280;42916;54.346;18.562;2023-01-31T13:58:18;99404.57;;;3.90;78.63
57024;BME280;42916;54.346;18.562;2023-01-31T14:00:49;99393.63;;;3.83;79.01
57024;BME280;42916;54.346;18.562;2023-01-31T14:03:24;99396.99;;;3.79;79.37
57024;BME280;42916;54.346;18.562;2023-01-31T14:05:57;99394.36;;;3.76;79.65
57024;BME280;42916;54.346;18.562;2023-01-31T14:08:30;99403.88;;;3.69;80.55
57024;BME280;42916;54.346;18.562;2023-01-31T14:11:02;99400.27;;;3.57;81.16
57024;BME280;42916;54.346;18.562;2023-01-31T14:16:00;99395.55;;;3.51;82.86
57024;BME280;42916;54.346;18.562;2023-01-31T14:18:44;99391.59;;;3.49;82.87
57024;BME280;42916;54.346;18.562;2023-01-31T14:24:02;99391.10;;;3.37;83.23
57024;BME280;42916;54.346;18.562;2023-01-31T14:26:51;99383.25;;;3.37;83.19
57024;BME280;42916;54.346;18.562;2023-01-31T14:29:20;99384.81;;;3.35;83.40
57024;BME280;42916;54.346;18.562;2023-01-31T14:31:49;99377.55;;;3.30;83.85
57024;BME280;42916;54.346;18.562;2023-01-31T14:34:24;99384.04;;;3.23;83.63
57024;BME280;42916;54.346;18.562;2023-01-31T14:37:24;99375.92;;;3.18;83.78
57024;BME280;42916;54.346;18.562;2023-01-31T14:40:02;99377.18;;;3.15;83.85
57024;BME280;42916;54.346;18.562;2023-01-31T14:45:52;99370.13;;;3.08;83.96
57024;BME280;42916;54.346;18.562;2023-01-31T14:51:42;99358.38;;;3.01;84.25
57024;BME280;42916;54.346;18.562;2023-01-31T14:57:29;99354.63;;;2.94;84.22
57024;BME280;42916;54.346;18.562;2023-01-31T15:00:02;99352.19;;;2.92;84.05
57024;BME280;42916;54.346;18.562;2023-01-31T15:08:05;99352.56;;;2.89;84.31
57024;BME280;42916;54.346;18.562;2023-01-31T15:10:52;99346.11;;;2.86;84.45
57024;BME280;42916;54.346;18.562;2023-01-31T15:13:41;99342.85;;;2.82;84.20
57024;BME280;42916;54.346;18.562;2023-01-31T15:16:14;99344.42;;;2.78;84.09
57024;BME280;42916;54.346;18.562;2023-01-31T15:18:45;99345.69;;;2.75;83.99
57024;BME280;42916;54.346;18.562;2023-01-31T15:24:26;99339.60;;;2.73;84.27
57024;BME280;42916;54.346;18.562;2023-01-31T15:26:56;99329.05;;;2.69;84.30
57024;BME280;42916;54.346;18.562;2023-01-31T15:29:32;99327.23;;;2.66;84.53
57024;BME280;42916;54.346;18.562;2023-01-31T15:32:07;99320.15;;;2.61;84.73